createdAt,value
2018-02-21T00:00:00.235Z,-2.90
2018-02-21T00:02:27.757Z,-2.90
2018-02-21T00:04:55.270Z,-2.90
2018-02-21T00:07:22.792Z,-2.90
2018-02-21T00:09:50.348Z,-2.90
2018-02-21T00:12:17.902Z,-2.90
2018-02-21T00:14:45.460Z,-2.90
2018-02-21T00:17:12.987Z,-3.00
2018-02-21T00:19:41.266Z,-2.90
2018-02-21T00:22:09.554Z,-3.00
2018-02-21T00:24:37.829Z,-2.90
2018-02-21T00:27:06.132Z,-2.90
2018-02-21T00:29:33.647Z,-2.90
2018-02-21T00:32:01.171Z,-2.90
2018-02-21T00:34:28.676Z,-2.90
2018-02-21T00:36:56.966Z,-2.90
2018-02-21T00:39:24.471Z,-2.90
2018-02-21T00:41:52.002Z,-2.80
2018-02-21T00:44:19.552Z,-2.90
2018-02-21T00:46:47.106Z,-2.90
2018-02-21T00:49:14.615Z,-2.90
2018-02-21T00:51:42.142Z,-2.90
2018-02-21T00:54:09.650Z,-2.80
2018-02-21T00:56:37.178Z,-2.80
2018-02-21T00:59:04.684Z,-2.80
2018-02-21T01:01:32.988Z,-2.80
2018-02-21T01:04:00.506Z,-2.80
2018-02-21T01:06:28.837Z,-2.80
2018-02-21T01:08:56.352Z,-2.80
2018-02-21T01:11:24.633Z,-2.80
2018-02-21T01:13:52.923Z,-2.80
2018-02-21T01:16:20.483Z,-2.80
2018-02-21T01:18:48.043Z,-2.80
2018-02-21T01:21:15.551Z,-2.80
2018-02-21T01:23:43.079Z,-2.80
2018-02-21T01:26:10.587Z,-2.80
2018-02-21T01:28:38.873Z,-2.80
2018-02-21T01:31:07.142Z,-2.80
2018-02-21T01:33:35.462Z,-2.80
2018-02-21T01:36:02.971Z,-2.80
2018-02-21T01:38:31.276Z,-2.90
2018-02-21T01:40:58.786Z,-2.90
2018-02-21T01:43:26.322Z,-2.90
2018-02-21T01:45:53.854Z,-2.90
2018-02-21T01:48:21.373Z,-2.90
2018-02-21T01:50:52.718Z,-2.80
2018-02-21T01:53:20.241Z,-2.80
2018-02-21T01:55:47.776Z,-2.80
2018-02-21T01:58:15.329Z,-2.80
2018-02-21T02:00:42.843Z,-2.80
2018-02-21T02:03:10.367Z,-2.80
2018-02-21T02:05:37.879Z,-2.90
2018-02-21T02:08:06.165Z,-2.80
2018-02-21T02:10:34.446Z,-2.90
2018-02-21T02:13:02.740Z,-2.90
2018-02-21T02:15:30.248Z,-2.90
2018-02-21T02:17:57.777Z,-2.80
2018-02-21T02:20:25.282Z,-2.80
2018-02-21T02:22:53.570Z,-2.70
2018-02-21T02:25:23.722Z,-2.70
2018-02-21T02:27:51.254Z,-2.80
2018-02-21T02:30:18.826Z,-2.70
2018-02-21T02:32:46.362Z,-2.70
2018-02-21T02:35:14.634Z,-2.70
2018-02-21T02:37:42.924Z,-2.70
2018-02-21T02:40:10.436Z,-2.70
2018-02-21T02:42:37.967Z,-2.80
2018-02-21T02:45:05.475Z,-2.80
2018-02-21T02:47:33.766Z,-2.70
2018-02-21T02:50:02.036Z,-2.70
2018-02-21T02:52:30.345Z,-2.70
2018-02-21T02:54:57.856Z,-2.80
2018-02-21T02:57:25.384Z,-2.80
2018-02-21T02:59:52.886Z,-2.80
2018-02-21T03:02:21.178Z,-2.80
2018-02-21T03:04:48.686Z,-2.80
2018-02-21T03:07:16.194Z,-2.80
2018-02-21T03:09:43.718Z,-2.70
2018-02-21T03:12:11.231Z,-2.80
2018-02-21T03:14:38.755Z,-2.80
2018-02-21T03:17:07.020Z,-2.80
2018-02-21T03:19:34.547Z,-2.80
2018-02-21T03:22:02.055Z,-2.80
2018-02-21T03:24:30.342Z,-2.80
2018-02-21T03:26:57.857Z,-2.80
2018-02-21T03:29:25.382Z,-2.80
2018-02-21T03:31:52.894Z,-2.80
2018-02-21T03:34:21.183Z,-2.70
2018-02-21T03:36:49.453Z,-2.70
2018-02-21T03:39:17.747Z,-2.70
2018-02-21T03:41:45.252Z,-2.80
2018-02-21T03:44:12.774Z,-2.80
2018-02-21T03:46:40.325Z,-2.70
2018-02-21T03:49:07.854Z,-2.70
2018-02-21T03:51:36.158Z,-2.70
2018-02-21T03:54:03.823Z,-2.70
2018-02-21T03:56:31.367Z,-2.70
2018-02-21T03:58:59.677Z,-2.70
2018-02-21T04:01:27.178Z,-2.70
2018-02-21T04:03:54.702Z,-2.70
2018-02-21T04:06:22.206Z,-2.70
2018-02-21T04:08:50.505Z,-2.80
2018-02-21T04:11:18.010Z,-2.80
2018-02-21T04:13:45.534Z,-2.80
2018-02-21T04:16:13.082Z,-2.80
2018-02-21T04:18:40.638Z,-2.80
2018-02-21T04:21:08.207Z,-2.80
2018-02-21T04:23:35.758Z,-2.80
2018-02-21T04:26:03.266Z,-2.80
2018-02-21T04:28:30.870Z,-2.80
2018-02-21T04:30:58.434Z,-2.80
2018-02-21T04:33:25.985Z,-2.80
2018-02-21T04:35:53.972Z,-2.70
2018-02-21T04:38:21.538Z,-2.70
2018-02-21T04:40:49.037Z,-2.70
2018-02-21T04:43:16.639Z,-2.70
2018-02-21T04:45:44.165Z,-2.70
2018-02-21T04:48:12.454Z,-2.70
2018-02-21T04:50:40.755Z,-2.70
2018-02-21T04:53:08.282Z,-2.70
2018-02-21T04:55:36.555Z,-2.70
2018-02-21T05:01:08.751Z,-2.70
2018-02-21T05:03:37.039Z,-2.70
2018-02-21T05:06:04.551Z,-2.70
2018-02-21T05:08:32.071Z,-2.70
2018-02-21T05:10:59.574Z,-2.70
2018-02-21T05:13:27.099Z,-2.70
2018-02-21T05:15:54.608Z,-2.70
2018-02-21T05:18:22.899Z,-2.60
2018-02-21T05:20:51.171Z,-2.60
2018-02-21T05:23:19.542Z,-2.60
2018-02-21T05:25:47.827Z,-2.50
2018-02-21T05:28:16.122Z,-2.50
2018-02-21T05:30:43.656Z,-2.50
2018-02-21T05:33:11.938Z,-2.60
2018-02-21T05:35:40.227Z,-2.60
2018-02-21T05:38:07.735Z,-2.60
2018-02-21T05:40:35.258Z,-2.50
2018-02-21T05:43:02.803Z,-2.50
2018-02-21T05:45:30.367Z,-2.60
2018-02-21T05:47:57.882Z,-2.50
2018-02-21T05:50:25.405Z,-2.60
2018-02-21T05:52:52.907Z,-2.50
2018-02-21T05:55:20.426Z,-2.50
2018-02-21T05:57:47.935Z,-2.50
2018-02-21T06:00:16.222Z,-2.50
2018-02-21T06:02:43.730Z,-2.50
2018-02-21T06:05:11.275Z,-2.50
2018-02-21T06:07:38.778Z,-2.40
2018-02-21T06:10:07.071Z,-2.50
2018-02-21T06:12:35.346Z,-2.50
2018-02-21T06:15:03.635Z,-2.50
2018-02-21T06:17:31.141Z,-2.50
2018-02-21T06:19:58.662Z,-2.50
2018-02-21T06:22:26.171Z,-2.50
2018-02-21T06:24:54.481Z,-2.50
2018-02-21T06:27:21.998Z,-2.50
2018-02-21T06:29:49.519Z,-2.40
2018-02-21T06:32:17.026Z,-2.40
2018-02-21T06:34:44.623Z,-2.40
2018-02-21T06:37:12.122Z,-2.40
2018-02-21T06:39:39.647Z,-2.40
2018-02-21T06:42:07.150Z,-2.40
2018-02-21T06:44:35.439Z,-2.40
2018-02-21T06:47:03.732Z,-2.40
2018-02-21T06:49:32.422Z,-2.50
2018-02-21T06:51:59.941Z,-2.50
2018-02-21T06:54:27.470Z,-2.40
2018-02-21T06:56:55.003Z,-2.40
2018-02-21T06:59:22.590Z,-2.40
2018-02-21T07:01:50.159Z,-2.40
2018-02-21T07:04:17.656Z,-2.30
2018-02-21T07:06:45.958Z,-2.20
2018-02-21T07:09:13.481Z,-2.20
2018-02-21T07:11:41.772Z,-2.00
2018-02-21T07:14:10.063Z,-2.20
2018-02-21T07:16:37.627Z,-2.20
2018-02-21T07:19:05.195Z,-2.10
2018-02-21T07:21:32.706Z,-2.10
2018-02-21T07:24:00.248Z,-2.00
2018-02-21T07:26:27.754Z,-2.10
2018-02-21T07:28:56.034Z,-2.00
2018-02-21T07:31:23.559Z,-2.00
2018-02-21T07:33:51.069Z,-1.90
2018-02-21T07:36:18.591Z,-1.80
2018-02-21T07:38:46.863Z,-1.90
2018-02-21T07:41:15.151Z,-2.00
2018-02-21T07:43:43.426Z,-2.00
2018-02-21T07:46:11.715Z,-2.00
2018-02-21T07:48:39.282Z,-2.00
2018-02-21T07:51:06.814Z,-2.10
2018-02-21T07:53:35.095Z,-2.00
2018-02-21T07:56:03.392Z,-2.00
2018-02-21T07:58:30.906Z,-2.00
2018-02-21T08:00:58.505Z,-2.10
2018-02-21T08:03:25.965Z,-2.00
2018-02-21T08:05:53.490Z,-2.00
2018-02-21T08:08:20.994Z,-1.90
2018-02-21T08:10:48.535Z,-1.80
2018-02-21T08:13:16.099Z,-1.70
2018-02-21T08:15:43.679Z,-1.60
2018-02-21T08:18:11.911Z,-1.40
2018-02-21T08:20:40.202Z,-1.30
2018-02-21T08:23:07.766Z,-1.40
2018-02-21T08:25:35.291Z,-1.50
2018-02-21T08:28:02.801Z,-1.60
2018-02-21T08:30:30.326Z,-1.40
2018-02-21T08:33:00.648Z,-1.20
2018-02-21T08:35:28.942Z,-1.00
2018-02-21T08:37:56.450Z,-1.00
2018-02-21T08:40:23.970Z,-0.90
2018-02-21T08:42:51.514Z,-1.10
2018-02-21T08:45:19.038Z,-1.10
2018-02-21T08:47:46.543Z,-1.00
2018-02-21T08:50:14.067Z,-1.20
2018-02-21T08:52:42.350Z,-1.10
2018-02-21T08:55:10.652Z,-1.30
2018-02-21T08:57:38.167Z,-1.40
2018-02-21T09:00:05.689Z,-1.20
2018-02-21T09:02:33.198Z,-0.90
2018-02-21T09:05:01.487Z,-0.50
2018-02-21T09:07:28.995Z,-0.60
2018-02-21T09:09:56.528Z,-0.70
2018-02-21T09:12:24.048Z,-0.60
2018-02-21T09:14:52.338Z,0.00
2018-02-21T09:17:19.854Z,-0.10
2018-02-21T09:19:47.371Z,0.50
2018-02-21T09:22:14.922Z,0.50
2018-02-21T09:24:42.427Z,0.30
2018-02-21T09:27:09.949Z,0.80
2018-02-21T09:29:37.456Z,1.00
2018-02-21T09:32:04.981Z,0.70
2018-02-21T09:34:32.482Z,0.00
2018-02-21T09:37:00.819Z,0.50
2018-02-21T09:39:28.351Z,0.50
2018-02-21T09:41:55.861Z,0.60
2018-02-21T09:44:23.455Z,0.30
2018-02-21T09:46:51.022Z,0.10
2018-02-21T09:49:18.583Z,-0.10
2018-02-21T09:51:46.094Z,-0.10
2018-02-21T09:54:13.599Z,-0.30
2018-02-21T09:56:41.159Z,-0.20
2018-02-21T09:59:08.719Z,0.20
2018-02-21T10:01:36.238Z,0.60
2018-02-21T10:04:04.507Z,0.50
2018-02-21T10:06:32.040Z,0.50
2018-02-21T10:08:59.542Z,0.50
2018-02-21T10:11:27.830Z,0.20
2018-02-21T10:13:56.094Z,0.30
2018-02-21T10:16:24.383Z,0.80
2018-02-21T10:18:52.651Z,0.10
2018-02-21T10:21:20.930Z,-0.40
2018-02-21T10:23:49.197Z,-0.30
2018-02-21T10:26:17.483Z,0.20
2018-02-21T10:28:45.751Z,0.40
2018-02-21T10:31:14.043Z,-0.10
2018-02-21T10:33:41.550Z,-0.10
2018-02-21T10:36:09.171Z,-0.10
2018-02-21T10:38:36.674Z,-0.10
2018-02-21T10:41:04.186Z,0.00
2018-02-21T10:43:31.690Z,-0.30
2018-02-21T10:45:59.214Z,0.00
2018-02-21T10:48:26.715Z,1.00
2018-02-21T10:50:54.315Z,1.70
2018-02-21T10:53:21.878Z,1.30
2018-02-21T10:55:49.375Z,1.40
2018-02-21T10:58:16.899Z,1.50
2018-02-21T11:00:50.031Z,1.40
2018-02-21T11:03:17.547Z,1.20
2018-02-21T11:05:45.050Z,1.20
2018-02-21T11:08:12.569Z,1.40
2018-02-21T11:10:40.081Z,1.30
2018-02-21T11:13:07.599Z,0.70
2018-02-21T11:15:35.103Z,0.40
2018-02-21T11:18:03.435Z,0.30
2018-02-21T11:20:30.894Z,0.40
2018-02-21T11:22:58.405Z,0.10
2018-02-21T11:25:26.669Z,0.10
2018-02-21T11:27:54.969Z,0.30
2018-02-21T11:30:22.471Z,0.30
2018-02-21T11:32:49.986Z,0.80
2018-02-21T11:35:17.492Z,0.60
2018-02-21T11:37:45.083Z,0.60
2018-02-21T11:40:13.360Z,0.80
2018-02-21T11:42:41.622Z,0.80
2018-02-21T11:45:09.161Z,0.90
2018-02-21T11:47:36.661Z,0.90
2018-02-21T11:50:05.046Z,0.80
2018-02-21T11:52:33.314Z,1.00
2018-02-21T11:55:01.596Z,1.10
2018-02-21T11:57:29.167Z,1.10
2018-02-21T11:59:56.682Z,1.10
2018-02-21T12:02:24.283Z,1.20
2018-02-21T12:04:51.842Z,1.40
2018-02-21T12:07:20.078Z,1.20
2018-02-21T12:09:47.617Z,1.20
2018-02-21T12:12:15.107Z,1.20
2018-02-21T12:14:43.395Z,1.10
2018-02-21T12:17:11.663Z,1.40
2018-02-21T12:19:39.949Z,1.40
2018-02-21T12:22:08.819Z,1.10
2018-02-21T12:24:36.338Z,1.10
2018-02-21T12:27:03.837Z,1.30
2018-02-21T12:29:31.378Z,0.70
2018-02-21T12:31:58.873Z,0.50
2018-02-21T12:34:26.389Z,0.50
2018-02-21T12:36:53.893Z,1.00
2018-02-21T12:39:27.054Z,1.60
2018-02-21T12:41:54.643Z,1.50
2018-02-21T12:44:22.216Z,1.80
2018-02-21T12:46:49.727Z,1.10
2018-02-21T12:49:17.222Z,1.10
2018-02-21T12:51:44.746Z,1.20
2018-02-21T12:54:12.343Z,0.90
2018-02-21T12:56:39.903Z,0.90
2018-02-21T12:59:07.399Z,0.80
2018-02-21T13:01:34.974Z,1.00
2018-02-21T13:04:02.452Z,1.00
2018-02-21T13:06:31.278Z,1.30
2018-02-21T13:08:58.783Z,1.30
2018-02-21T13:11:26.303Z,1.20
2018-02-21T13:13:53.808Z,0.90
2018-02-21T13:16:21.322Z,0.80
2018-02-21T13:18:48.813Z,0.80
2018-02-21T13:21:16.430Z,0.70
2018-02-21T13:23:43.975Z,0.60
2018-02-21T13:26:11.502Z,0.40
2018-02-21T13:28:39.766Z,0.70
2018-02-21T13:31:07.366Z,0.70
2018-02-21T13:33:34.874Z,0.60
2018-02-21T13:36:02.387Z,0.70
2018-02-21T13:38:29.939Z,0.80
2018-02-21T13:40:57.471Z,0.90
2018-02-21T13:43:25.750Z,0.80
2018-02-21T13:45:54.046Z,1.00
2018-02-21T13:48:21.544Z,1.00
2018-02-21T13:50:49.054Z,0.90
2018-02-21T13:53:17.341Z,0.60
2018-02-21T13:55:44.858Z,0.60
2018-02-21T13:58:12.354Z,0.80
2018-02-21T14:00:40.639Z,0.80
2018-02-21T14:03:08.139Z,0.80
2018-02-21T14:05:35.650Z,0.90
2018-02-21T14:08:03.152Z,0.60
2018-02-21T14:10:30.670Z,0.40
2018-02-21T14:12:58.235Z,0.40
2018-02-21T14:15:25.755Z,0.20
2018-02-21T14:17:53.254Z,0.00
2018-02-21T14:20:20.774Z,0.10
2018-02-21T14:22:49.074Z,0.50
2018-02-21T14:25:16.590Z,0.40
2018-02-21T14:27:44.179Z,0.40
2018-02-21T14:30:12.470Z,0.40
2018-02-21T14:32:39.976Z,0.40
2018-02-21T14:35:07.499Z,0.70
2018-02-21T14:37:35.003Z,0.50
2018-02-21T14:40:02.510Z,0.10
2018-02-21T14:42:30.023Z,0.30
2018-02-21T14:44:57.617Z,0.20
2018-02-21T14:47:25.140Z,0.40
2018-02-21T14:49:52.642Z,0.10
2018-02-21T14:52:20.162Z,0.30
2018-02-21T14:54:47.675Z,0.30
2018-02-21T14:57:15.194Z,0.30
2018-02-21T14:59:43.471Z,0.30
2018-02-21T15:02:11.763Z,0.10
2018-02-21T15:04:39.278Z,0.10
2018-02-21T15:07:06.799Z,0.10
2018-02-21T15:09:34.306Z,0.00
2018-02-21T15:12:01.827Z,0.10
2018-02-21T15:14:29.334Z,0.20
2018-02-21T15:16:57.622Z,0.20
2018-02-21T15:19:25.890Z,0.10
2018-02-21T15:21:54.173Z,0.00
2018-02-21T15:24:22.447Z,0.00
2018-02-21T15:26:50.735Z,0.10
2018-02-21T15:29:18.239Z,0.10
2018-02-21T15:31:45.766Z,0.10
2018-02-21T15:34:13.316Z,0.00
2018-02-21T15:36:41.583Z,-0.10
2018-02-21T15:39:09.099Z,-0.10
2018-02-21T15:41:36.625Z,0.00
2018-02-21T15:44:04.136Z,-0.10
2018-02-21T15:46:32.435Z,-0.20
2018-02-21T15:48:59.952Z,-0.20
2018-02-21T15:51:27.482Z,-0.30
2018-02-21T15:53:54.987Z,-0.50
2018-02-21T15:56:23.286Z,-0.40
2018-02-21T15:58:50.796Z,-0.40
2018-02-21T16:01:18.323Z,-0.50
2018-02-21T16:03:45.827Z,-0.60
2018-02-21T16:06:13.428Z,-0.70
2018-02-21T16:08:40.979Z,-0.60
2018-02-21T16:11:08.510Z,-0.70
2018-02-21T16:13:36.786Z,-0.80
2018-02-21T16:16:05.082Z,-0.70
2018-02-21T16:18:33.354Z,-0.80
2018-02-21T16:21:01.652Z,-0.80
2018-02-21T16:23:29.167Z,-0.90
2018-02-21T16:25:56.699Z,-0.90
2018-02-21T16:28:24.226Z,-1.00
2018-02-21T16:30:51.752Z,-1.00
2018-02-21T16:33:20.027Z,-1.20
2018-02-21T16:35:48.330Z,-1.10
2018-02-21T16:38:15.879Z,-1.10
2018-02-21T16:40:44.155Z,-1.00
2018-02-21T16:43:11.684Z,-1.00
2018-02-21T16:45:39.194Z,-1.10
2018-02-21T16:48:06.722Z,-1.20
2018-02-21T16:50:35.001Z,-1.30
2018-02-21T16:53:03.394Z,-1.30
2018-02-21T16:55:30.902Z,-1.30
2018-02-21T16:57:58.421Z,-1.30
2018-02-21T17:00:25.934Z,-1.30
2018-02-21T17:02:53.944Z,-1.30
2018-02-21T17:05:21.450Z,-1.40
2018-02-21T17:07:49.774Z,-1.40
2018-02-21T17:10:17.286Z,-1.40
2018-02-21T17:12:44.898Z,-1.40
2018-02-21T17:15:12.450Z,-1.40
2018-02-21T17:17:40.011Z,-1.40
2018-02-21T17:20:07.518Z,-1.40
2018-02-21T17:22:35.052Z,-1.50
2018-02-21T17:25:02.566Z,-1.60
2018-02-21T17:27:30.854Z,-1.70
2018-02-21T17:29:58.362Z,-1.70
2018-02-21T17:32:25.886Z,-1.70
2018-02-21T17:34:53.394Z,-1.70
2018-02-21T17:37:22.430Z,-1.60
2018-02-21T17:39:49.938Z,-1.70
2018-02-21T17:42:17.471Z,-1.70
2018-02-21T17:44:44.986Z,-1.70
2018-02-21T17:47:13.279Z,-1.70
2018-02-21T17:49:40.839Z,-1.70
2018-02-21T17:52:08.370Z,-1.70
2018-02-21T17:54:36.675Z,-1.80
2018-02-21T17:57:04.231Z,-1.80
2018-02-21T17:59:31.739Z,-1.80
2018-02-21T18:01:59.269Z,-1.80
2018-02-21T18:04:26.774Z,-1.80
2018-02-21T18:06:54.295Z,-1.80
2018-02-21T18:09:21.799Z,-1.90
2018-02-21T18:11:50.095Z,-1.90
2018-02-21T18:14:17.606Z,-1.90
2018-02-21T18:16:45.147Z,-1.90
2018-02-21T18:19:12.657Z,-1.80
2018-02-21T18:21:46.581Z,-2.00
2018-02-21T18:24:14.094Z,-2.00
2018-02-21T18:26:41.602Z,-1.90
2018-02-21T18:29:09.155Z,-1.90
2018-02-21T18:31:36.670Z,-2.00
2018-02-21T18:34:04.199Z,-2.00
2018-02-21T18:36:31.737Z,-2.00
2018-02-21T18:38:59.272Z,-2.00
2018-02-21T18:41:27.552Z,-2.00
2018-02-21T18:43:55.947Z,-2.00
2018-02-21T18:46:23.500Z,-2.00
2018-02-21T18:48:51.031Z,-2.00
2018-02-21T18:51:18.539Z,-2.00
2018-02-21T18:53:46.063Z,-1.90
2018-02-21T18:56:14.346Z,-1.90
2018-02-21T18:58:41.866Z,-2.00
2018-02-21T19:01:09.375Z,-2.00
2018-02-21T19:03:36.898Z,-2.00
2018-02-21T19:06:05.179Z,-2.10
2018-02-21T19:08:33.477Z,-2.10
2018-02-21T19:11:00.990Z,-2.20
2018-02-21T19:13:28.527Z,-2.20
2018-02-21T19:15:56.030Z,-2.30
2018-02-21T19:18:24.337Z,-2.40
2018-02-21T19:20:51.842Z,-2.40
2018-02-21T19:23:19.450Z,-2.50
2018-02-21T19:25:47.011Z,-2.50
2018-02-21T19:28:14.535Z,-2.60
2018-02-21T19:30:42.805Z,-2.60
2018-02-21T19:33:10.403Z,-2.60
2018-02-21T19:35:37.914Z,-2.50
2018-02-21T19:38:05.446Z,-2.50
2018-02-21T19:40:32.950Z,-2.50
2018-02-21T19:43:01.247Z,-2.50
2018-02-21T19:45:28.809Z,-2.50
2018-02-21T19:47:56.373Z,-2.40
2018-02-21T19:50:23.929Z,-2.40
2018-02-21T19:52:51.454Z,-2.30
2018-02-21T19:55:19.726Z,-2.20
2018-02-21T19:57:47.246Z,-2.20
2018-02-21T20:00:14.758Z,-2.10
2018-02-21T20:02:43.051Z,-2.20
2018-02-21T20:05:10.562Z,-2.20
2018-02-21T20:07:38.087Z,-2.20
2018-02-21T20:10:05.596Z,-2.20
2018-02-21T20:12:33.878Z,-2.10
2018-02-21T20:15:02.174Z,-2.10
2018-02-21T20:17:30.459Z,-2.10
2018-02-21T20:19:57.993Z,-2.10
2018-02-21T20:22:26.270Z,-2.10
2018-02-21T20:24:54.688Z,-2.10
2018-02-21T20:27:22.269Z,-2.10
2018-02-21T20:29:49.819Z,-2.10
2018-02-21T20:32:17.337Z,-2.10
2018-02-21T20:34:45.630Z,-2.00
2018-02-21T20:37:13.139Z,-2.10
2018-02-21T20:39:41.432Z,-2.10
2018-02-21T20:42:10.413Z,-2.10
2018-02-21T20:44:37.933Z,-2.10
2018-02-21T20:47:05.441Z,-2.10
2018-02-21T20:49:33.730Z,-2.10
2018-02-21T20:52:02.007Z,-2.00
2018-02-21T20:54:35.564Z,-2.10
2018-02-21T20:57:04.034Z,-2.10
2018-02-21T20:59:39.651Z,-2.10
2018-02-21T21:02:07.275Z,-2.10
2018-02-21T21:04:34.806Z,-2.20
2018-02-21T21:07:02.319Z,-2.20
2018-02-21T21:09:29.858Z,-2.20
2018-02-21T21:11:57.365Z,-2.20
2018-02-21T21:14:24.902Z,-2.30
2018-02-21T21:16:52.411Z,-2.30
2018-02-21T21:19:19.956Z,-2.30
2018-02-21T21:21:47.462Z,-2.30
2018-02-21T21:24:15.852Z,-2.20
2018-02-21T21:26:43.429Z,-2.20
2018-02-21T21:29:11.050Z,-2.20
2018-02-21T21:31:39.325Z,-2.30
2018-02-21T21:34:07.647Z,-2.30
2018-02-21T21:36:35.155Z,-2.30
2018-02-21T21:39:02.679Z,-2.40
2018-02-21T21:41:30.187Z,-2.40
2018-02-21T21:43:58.498Z,-2.40
2018-02-21T21:46:26.007Z,-2.40
2018-02-21T21:48:54.317Z,-2.40
2018-02-21T21:51:21.834Z,-2.40
2018-02-21T21:53:49.366Z,-2.50
2018-02-21T21:56:16.881Z,-2.50
2018-02-21T21:58:44.398Z,-2.60
2018-02-21T22:01:11.902Z,-2.70
2018-02-21T22:03:39.431Z,-2.70
2018-02-21T22:06:06.934Z,-2.80
2018-02-21T22:08:34.453Z,-2.80
2018-02-21T22:11:02.726Z,-2.70
2018-02-21T22:13:31.014Z,-2.80
2018-02-21T22:15:59.282Z,-2.80
2018-02-21T22:18:27.606Z,-2.90
2018-02-21T22:20:55.134Z,-2.90
2018-02-21T22:23:22.646Z,-2.90
2018-02-21T22:25:50.224Z,-2.90
2018-02-21T22:28:17.706Z,-2.90
2018-02-21T22:30:46.000Z,-2.90
2018-02-21T22:33:13.544Z,-3.00
2018-02-21T22:35:41.082Z,-3.00
2018-02-21T22:38:09.354Z,-2.90
2018-02-21T22:40:36.886Z,-3.00
2018-02-21T22:43:04.391Z,-2.90
2018-02-21T22:45:32.687Z,-2.90
2018-02-21T22:48:00.202Z,-2.90
2018-02-21T22:50:27.718Z,-2.90
2018-02-21T22:52:55.250Z,-2.90
2018-02-21T22:55:22.780Z,-2.90
2018-02-21T22:57:51.059Z,-3.00
2018-02-21T23:00:19.359Z,-2.90
2018-02-21T23:02:46.879Z,-2.90
2018-02-21T23:05:14.477Z,-2.90
2018-02-21T23:07:41.994Z,-3.00
2018-02-21T23:10:09.518Z,-3.00
2018-02-21T23:12:37.027Z,-3.00
2018-02-21T23:15:05.322Z,-3.00
2018-02-21T23:17:33.610Z,-3.20
2018-02-21T23:20:01.166Z,-3.20
2018-02-21T23:22:28.684Z,-3.20
2018-02-21T23:24:56.206Z,-3.30
2018-02-21T23:27:23.714Z,-3.40
2018-02-21T23:29:52.031Z,-3.50
2018-02-21T23:32:19.542Z,-3.50
2018-02-21T23:34:48.781Z,-3.60
2018-02-21T23:37:16.282Z,-3.60
2018-02-21T23:39:43.806Z,-3.70
2018-02-21T23:42:11.310Z,-3.60
2018-02-21T23:44:38.840Z,-3.70
2018-02-21T23:47:06.346Z,-3.70
2018-02-21T23:49:34.634Z,-3.70
2018-02-21T23:52:02.152Z,-3.80
2018-02-21T23:54:29.677Z,-3.80
2018-02-21T23:56:57.178Z,-3.80
2018-02-21T23:59:24.698Z,-3.80
